Time;durP1;ratioP1;P1;durP2;ratioP2;P2;SDS_P1;SDS_P2;PMS_P1;PMS_P2;Temp;Humidity;BMP_temperature;BMP_pressure;BME280_temperature;BME280_humidity;BME280_pressure;Samples;Min_cycle;Max_cycle;Signal;HPM_P1;HPM_P2
2023/10/05 00:01:10;;;;;;;5.20;4.80;;;;;;;11.74;100.00;101856.41;6086470;23;20390;-74
2023/10/05 00:03:38;;;;;;;5.30;4.75;;;;;;;11.76;100.00;101844.91;6052804;23;20061;-74
2023/10/05 00:06:15;;;;;;;5.22;4.85;;;;;;;11.67;100.00;101812.88;6109609;23;20016;-74
2023/10/05 00:08:49;;;;;;;5.38;4.97;;;;;;;11.83;100.00;101835.03;6060910;23;20032;-74
2023/10/05 00:11:31;;;;;;;5.25;4.90;;;;;;;11.82;100.00;101835.91;6110816;23;20062;-74
2023/10/05 00:14:01;;;;;;;6.22;5.00;;;;;;;11.87;100.00;101841.88;6088250;23;20014;-74
2023/10/05 00:16:37;;;;;;;5.10;4.72;;;;;;;11.89;100.00;101834.81;6114583;23;20053;-74
2023/10/05 00:19:11;;;;;;;4.88;4.47;;;;;;;11.93;100.00;101839.03;6079399;23;20344;-73
2023/10/05 00:21:51;;;;;;;4.95;4.65;;;;;;;11.60;100.00;101785.94;6114297;23;20021;-74
2023/10/05 00:24:23;;;;;;;5.18;4.88;;;;;;;11.81;100.00;101822.81;6083763;23;20428;-73
2023/10/05 00:26:50;;;;;;;5.25;4.72;;;;;;;11.94;100.00;101829.34;6118387;23;20009;-74
2023/10/05 00:29:29;;;;;;;5.43;4.93;;;;;;;11.92;100.00;101815.41;6066146;23;20504;-74
2023/10/05 00:31:59;;;;;;;5.32;4.93;;;;;;;11.79;100.00;101793.97;6111671;23;20090;-74
2023/10/05 00:34:33;;;;;;;6.22;5.65;;;;;;;11.45;100.00;101739.25;6071568;23;20492;-74
2023/10/05 00:37:00;;;;;;;6.30;5.05;;;;;;;12.01;100.00;101824.69;6088470;23;20024;-76
2023/10/05 00:39:29;;;;;;;5.57;5.05;;;;;;;11.99;100.00;101827.41;6057871;23;20485;-73
2023/10/05 00:42:11;;;;;;;4.75;4.55;;;;;;;11.80;100.00;101800.09;6083637;23;20069;-72
2023/10/05 00:44:41;;;;;;;5.32;4.95;;;;;;;11.75;100.00;101780.09;6082092;23;20402;-74
2023/10/05 00:47:11;;;;;;;10.43;5.15;;;;;;;12.05;100.00;101813.16;6112705;23;20049;-73
2023/10/05 00:49:45;;;;;;;5.72;5.20;;;;;;;12.07;100.00;101813.97;6060447;23;20030;-76
2023/10/05 00:52:15;;;;;;;5.30;4.90;;;;;;;11.78;100.00;101766.81;6050941;23;20030;-75
2023/10/05 00:54:45;;;;;;;5.57;4.55;;;;;;;12.05;100.00;101819.28;6084145;23;20413;-75
2023/10/05 00:57:15;;;;;;;5.40;5.00;;;;;;;11.22;100.00;101691.03;6056197;23;20096;-75
2023/10/05 00:59:46;;;;;;;8.40;4.88;;;;;;;11.60;100.00;101758.81;6081114;23;20036;-74
2023/10/05 01:02:20;;;;;;;5.00;4.60;;;;;;;11.57;100.00;101750.13;6054792;23;20021;-74
2023/10/05 01:04:53;;;;;;;10.38;4.93;;;;;;;12.05;100.00;101826.31;6080684;23;20059;-75
2023/10/05 01:12:38;;;;;;;5.28;4.97;;;;;;;11.49;100.00;101733.78;6042564;23;20046;-73
2023/10/05 01:15:06;;;;;;;5.40;4.70;;;;;;;12.08;100.00;101815.66;6086327;23;20560;-72
2023/10/05 01:17:37;;;;;;;9.55;4.57;;;;;;;11.59;100.00;101734.28;6089065;23;20288;-74
2023/10/05 01:20:11;;;;;;;4.85;4.53;;;;;;;12.06;100.00;101818.34;6094904;23;20468;-75
2023/10/05 01:22:44;;;;;;;5.40;4.90;;;;;;;11.60;100.00;101732.50;6114089;23;20056;-74
2023/10/05 01:25:14;;;;;;;8.57;4.63;;;;;;;12.06;100.00;101809.59;6087963;23;20074;-73
2023/10/05 01:27:50;;;;;;;5.15;4.85;;;;;;;12.04;100.00;101807.03;6118756;23;20077;-72
2023/10/05 01:30:18;;;;;;;6.45;5.25;;;;;;;12.05;100.00;101805.28;6052697;23;20052;-73
2023/10/05 01:32:46;;;;;;;4.90;4.60;;;;;;;12.07;100.00;101813.97;6096250;23;20617;-73
2023/10/05 01:35:14;;;;;;;5.53;5.03;;;;;;;11.95;100.00;101810.88;6070297;23;20072;-73
2023/10/05 01:37:45;;;;;;;7.13;4.70;;;;;;;12.16;100.00;101834.63;6114506;23;20040;-75
2023/10/05 01:42:47;;;;;;;5.55;4.88;;;;;;;12.12;100.00;101823.34;6116822;23;20245;-74
2023/10/05 01:48:18;;;;;;;4.72;4.50;;;;;;;11.91;100.00;101793.50;6085009;23;20463;-72
2023/10/05 01:50:44;;;;;;;6.25;5.32;;;;;;;12.16;100.00;101826.72;6063828;23;20643;-72
2023/10/05 01:53:17;;;;;;;5.00;4.70;;;;;;;12.15;100.00;101827.66;6118125;23;20073;-73
2023/10/05 01:55:45;;;;;;;5.13;4.82;;;;;;;11.78;100.00;101750.16;6062962;23;20122;-73
2023/10/05 01:58:22;;;;;;;10.38;5.03;;;;;;;12.10;100.00;101813.81;6085758;23;20389;-73
2023/10/05 02:00:48;;;;;;;5.72;4.30;;;;;;;11.66;100.00;101748.03;6116549;23;20365;-74
2023/10/05 02:03:17;;;;;;;5.13;4.35;;;;;;;12.05;100.00;101821.06;6068028;23;20006;-74
2023/10/05 02:05:46;;;;;;;5.13;4.60;;;;;;;11.74;100.00;101782.78;6092018;23;20033;-73
2023/10/05 02:08:15;;;;;;;6.05;4.57;;;;;;;11.76;100.00;101778.31;6087205;23;20648;-73
2023/10/05 02:10:46;;;;;;;6.90;4.97;;;;;;;11.93;100.00;101819.78;6110253;23;20034;-73
2023/10/05 02:13:14;;;;;;;5.35;4.82;;;;;;;12.04;100.00;101838.59;6059417;23;20038;-73
2023/10/05 02:15:41;;;;;;;5.68;5.18;;;;;;;11.91;100.00;101817.19;6112532;23;20041;-74
2023/10/05 02:18:18;;;;;;;5.88;5.35;;;;;;;12.01;100.00;101824.69;6062485;23;20056;-72
2023/10/05 02:20:46;;;;;;;4.55;4.25;;;;;;;11.65;100.00;101773.47;6105890;23;20648;-74
2023/10/05 02:23:25;;;;;;;5.53;5.13;;;;;;;12.03;100.00;101822.84;6061173;23;20504;-75
2023/10/05 02:26:05;;;;;;;4.97;4.68;;;;;;;11.53;100.00;101745.91;6091712;23;20022;-72
2023/10/05 02:28:33;;;;;;;6.18;5.55;;;;;;;12.00;100.00;101823.00;6078193;23;20036;-74
2023/10/05 02:31:00;;;;;;;4.80;4.53;;;;;;;11.98;100.00;101826.53;6056812;23;20029;-73
2023/10/05 02:33:28;;;;;;;5.10;4.80;;;;;;;11.94;100.00;101818.84;6105389;23;20077;-75
2023/10/05 02:36:08;;;;;;;4.53;4.22;;;;;;;11.74;100.00;101795.91;6076093;23;20022;-75
2023/10/05 02:38:36;;;;;;;5.45;4.80;;;;;;;11.95;100.00;101815.31;6090334;23;20040;-75
2023/10/05 02:41:05;;;;;;;8.70;5.30;;;;;;;11.54;100.00;101757.25;6084388;23;20112;-74
2023/10/05 02:43:38;;;;;;;5.18;4.88;;;;;;;11.97;100.00;101822.22;6058856;23;20117;-74
2023/10/05 02:46:10;;;;;;;4.97;4.68;;;;;;;12.02;100.00;101821.16;6084316;23;20085;-76
2023/10/05 02:48:41;;;;;;;4.90;4.60;;;;;;;11.46;100.00;101726.00;6108167;23;20078;-72
2023/10/05 02:51:10;;;;;;;7.57;5.00;;;;;;;12.01;100.00;101808.91;6085322;23;20073;-74
2023/10/05 02:53:41;;;;;;;5.03;4.72;;;;;;;11.97;100.00;101797.69;6112767;23;20351;-73
2023/10/05 02:56:27;;;;;;;6.57;5.05;;;;;;;11.90;100.00;101780.41;6085228;23;20242;-73
2023/10/05 02:59:00;;;;;;;4.75;4.45;;;;;;;12.03;100.00;101801.81;6106574;23;20024;-76
2023/10/05 03:01:26;;;;;;;6.28;4.50;;;;;;;11.27;100.00;101683.00;6064362;23;20464;-73
2023/10/05 03:03:55;;;;;;;6.05;4.93;;;;;;;11.94;100.00;101809.16;6089839;23;20053;-74
2023/10/05 03:06:22;;;;;;;5.15;4.85;;;;;;;11.71;100.00;101765.34;6065916;23;20273;-76
2023/10/05 03:08:49;;;;;;;4.50;4.22;;;;;;;11.70;100.00;101762.78;6116089;23;20042;-73
2023/10/05 03:11:18;;;;;;;6.55;5.95;;;;;;;11.98;100.00;101808.13;6060913;23;20366;-76
2023/10/05 03:13:46;;;;;;;4.82;4.55;;;;;;;11.88;100.00;101782.22;6056297;23;20080;-74
2023/10/05 03:16:16;;;;;;;4.40;4.20;;;;;;;11.91;100.00;101784.78;6092520;23;20466;-74
2023/10/05 03:18:43;;;;;;;4.93;4.53;;;;;;;11.87;100.00;101783.16;6081639;23;20534;-73
2023/10/05 03:21:14;;;;;;;6.57;4.57;;;;;;;11.92;100.00;101795.22;6106000;23;20471;-73
2023/10/05 03:23:41;;;;;;;5.38;4.80;;;;;;;11.81;100.00;101780.75;6061679;23;20034;-75
2023/10/05 03:26:15;;;;;;;5.63;4.40;;;;;;;11.47;100.00;101719.84;6109066;23;20522;-72
2023/10/05 03:28:42;;;;;;;5.30;4.90;;;;;;;11.80;100.00;101774.63;6067985;23;20032;-74
2023/10/05 03:31:19;;;;;;;4.95;4.65;;;;;;;11.62;100.00;101760.44;6087574;23;20045;-73
2023/10/05 03:33:46;;;;;;;5.18;4.93;;;;;;;11.56;100.00;101769.41;6059532;23;20034;-73
2023/10/05 03:36:14;;;;;;;5.30;4.90;;;;;;;11.70;100.00;101796.97;6057158;23;20029;-73
2023/10/05 03:38:42;;;;;;;5.25;4.85;;;;;;;11.64;100.00;101797.19;6089611;23;20422;-73
2023/10/05 03:41:15;;;;;;;4.90;4.65;;;;;;;11.57;100.00;101804.47;6061334;23;20038;-76
2023/10/05 03:43:47;;;;;;;7.97;4.97;;;;;;;10.99;100.00;101707.69;6113194;23;20033;-72
2023/10/05 03:46:13;;;;;;;7.32;5.22;;;;;;;11.54;100.00;101800.19;6084110;23;20104;-73
2023/10/05 03:48:41;;;;;;;5.35;4.95;;;;;;;11.61;100.00;101818.38;6082288;23;20044;-72
2023/10/05 03:51:15;;;;;;;5.25;4.75;;;;;;;11.36;100.00;101785.13;6061511;23;20014;-72
2023/10/05 03:53:48;;;;;;;4.97;4.63;;;;;;;11.53;100.00;101808.16;6109741;23;20033;-75
2023/10/05 03:56:18;;;;;;;5.68;4.75;;;;;;;10.83;100.00;101701.31;6060771;23;20177;-75
2023/10/05 03:58:48;;;;;;;5.20;4.90;;;;;;;11.06;100.00;101750.34;6109081;23;20142;-73
2023/10/05 04:01:15;;;;;;;4.60;4.30;;;;;;;11.63;100.00;101840.19;6063289;23;20366;-75
2023/10/05 04:03:44;;;;;;;5.35;4.90;;;;;;;11.50;100.00;101819.63;6111369;23;20066;-73
2023/10/05 04:06:20;;;;;;;4.72;4.45;;;;;;;11.50;100.00;101824.88;6062608;23;20018;-73
2023/10/05 04:08:49;;;;;;;4.60;4.40;;;;;;;11.65;100.00;101841.84;6108436;23;20029;-73
2023/10/05 04:11:17;;;;;;;6.72;4.90;;;;;;;11.58;100.00;101833.31;6064422;23;20054;-74
2023/10/05 04:13:44;;;;;;;6.72;5.20;;;;;;;11.64;100.00;101840.13;6108284;23;20452;-74
2023/10/05 04:16:18;;;;;;;4.63;4.32;;;;;;;11.64;100.00;101841.91;6066578;23;20145;-73
2023/10/05 04:18:46;;;;;;;5.40;4.90;;;;;;;11.62;100.00;101839.31;6107799;23;20013;-72
2023/10/05 04:21:15;;;;;;;12.07;5.10;;;;;;;11.22;100.00;101783.00;6055467;23;20554;-75
2023/10/05 04:23:45;;;;;;;4.85;4.55;;;;;;;11.38;100.00;101815.72;6082822;23;20036;-73
2023/10/05 04:26:11;;;;;;;5.05;4.65;;;;;;;11.07;100.00;101763.44;6079813;23;20020;-75
2023/10/05 04:28:40;;;;;;;4.80;4.50;;;;;;;11.25;100.00;101792.56;6087076;23;20029;-74
2023/10/05 04:31:13;;;;;;;5.25;4.88;;;;;;;10.01;100.00;101594.00;6079230;23;20521;-74
2023/10/05 04:33:42;;;;;;;;;;;;;;;11.48;100.00;101834.59;6107195;23;20029;-74
2023/10/05 04:36:09;;;;;;;8.68;5.28;;;;;;;11.22;100.00;101797.91;6053669;23;19909;-74
2023/10/05 04:38:36;;;;;;;4.53;4.30;;;;;;;11.44;100.00;101835.63;6057091;23;20636;-72
2023/10/05 04:41:02;;;;;;;4.72;4.43;;;;;;;11.23;100.00;101811.00;6108386;23;20037;-74
2023/10/05 04:43:30;;;;;;;5.38;5.07;;;;;;;11.42;100.00;101841.84;6063929;23;20109;-74
2023/10/05 04:45:56;;;;;;;5.07;4.28;;;;;;;11.32;100.00;101825.56;6102484;23;20022;-75
2023/10/05 04:48:24;;;;;;;4.80;4.40;;;;;;;10.96;100.00;101778.72;6080547;23;20034;-75
2023/10/05 04:50:51;;;;;;;5.18;4.78;;;;;;;10.92;100.00;101759.56;6109791;23;20484;-75
2023/10/05 04:53:20;;;;;;;4.95;4.57;;;;;;;11.40;100.00;101841.91;6084753;23;20010;-72
2023/10/05 04:55:46;;;;;;;4.90;4.55;;;;;;;11.36;100.00;101846.41;6111150;23;20037;-75
2023/10/05 04:58:31;;;;;;;4.70;4.38;;;;;;;11.32;100.00;101841.34;6054426;23;20354;-75
2023/10/05 05:06:11;;;;;;;4.57;4.28;;;;;;;11.11;100.00;101830.72;6070611;23;20251;-73
2023/10/05 05:08:41;;;;;;;4.75;4.38;;;;;;;10.86;100.00;101793.09;6075335;23;20038;-77
2023/10/05 05:11:19;;;;;;;5.18;4.78;;;;;;;10.90;100.00;101803.44;6024650;23;20026;-74
2023/10/05 05:13:48;;;;;;;4.60;4.40;;;;;;;10.87;100.00;101800.06;6026159;23;20034;-76
2023/10/05 05:16:15;;;;;;;4.40;4.20;;;;;;;10.87;100.00;101808.81;6028944;23;20027;-74
2023/10/05 05:18:42;;;;;;;6.88;4.38;;;;;;;11.05;100.00;101844.06;6083190;23;20104;-75
2023/10/05 05:21:12;;;;;;;5.00;4.60;;;;;;;11.21;100.00;101857.50;6055957;23;20351;-74
2023/10/05 05:23:43;;;;;;;4.40;4.20;;;;;;;11.24;100.00;101859.16;6083449;23;21006;-73
2023/10/05 05:26:10;;;;;;;4.95;4.65;;;;;;;11.26;100.00;101847.66;6034844;23;20027;-74
2023/10/05 05:28:37;;;;;;;5.10;4.60;;;;;;;10.96;100.00;101812.84;6083427;23;20101;-73
2023/10/05 05:31:07;;;;;;;4.45;4.18;;;;;;;11.16;100.00;101841.91;6047721;23;20022;-74
2023/10/05 05:33:38;;;;;;;5.00;4.70;;;;;;;11.26;100.00;101849.44;6027196;23;20031;-73
2023/10/05 05:36:08;;;;;;;4.50;4.30;;;;;;;10.77;100.00;101773.28;6038972;23;20042;-73
2023/10/05 05:38:35;;;;;;;4.45;4.00;;;;;;;10.95;100.00;101800.66;6069297;23;20060;-72
2023/10/05 05:41:09;;;;;;;4.60;4.20;;;;;;;11.31;100.00;101855.41;6034421;23;20025;-74
2023/10/05 05:43:36;;;;;;;7.85;4.57;;;;;;;11.29;100.00;101846.72;6006127;23;20051;-74
2023/10/05 05:46:02;;;;;;;4.40;4.20;;;;;;;11.27;100.00;101838.03;6053028;23;20018;-74
2023/10/05 05:48:31;;;;;;;4.47;4.25;;;;;;;9.99;100.00;101636.00;6090536;23;20034;-75
2023/10/05 05:51:04;;;;;;;4.50;4.20;;;;;;;10.95;100.00;101777.88;6058389;23;20018;-73
2023/10/05 05:53:31;;;;;;;4.60;4.35;;;;;;;11.07;100.00;101810.72;6082346;23;20036;-76
2023/10/05 05:56:01;;;;;;;6.15;4.40;;;;;;;11.38;100.00;101854.25;6041073;23;20025;-72
2023/10/05 05:58:27;;;;;;;6.25;4.70;;;;;;;11.44;100.00;101856.66;6084273;23;20088;-74
2023/10/05 06:00:55;;;;;;;4.75;4.45;;;;;;;11.20;100.00;101819.00;6057537;23;20018;-73
2023/10/05 06:03:24;;;;;;;4.40;4.20;;;;;;;11.29;100.00;101823.06;6087202;23;20010;-74
2023/10/05 06:05:51;;;;;;;10.43;4.68;;;;;;;11.31;100.00;101826.50;6057024;23;20131;-74
2023/10/05 06:08:17;;;;;;;4.97;4.57;;;;;;;11.57;100.00;101860.53;6032440;23;20034;-72
2023/10/05 06:10:46;;;;;;;4.97;4.68;;;;;;;11.35;100.00;101839.47;6086021;23;20013;-76
2023/10/05 06:13:13;;;;;;;4.82;4.40;;;;;;;11.81;100.00;101892.09;6054396;23;20077;-74
2023/10/05 06:15:41;;;;;;;4.70;4.35;;;;;;;11.84;100.00;101883.22;6024534;23;20030;-73
2023/10/05 06:18:08;;;;;;;4.60;4.30;;;;;;;11.75;100.00;101877.41;6083451;23;20617;-73
2023/10/05 06:20:35;;;;;;;4.75;4.50;;;;;;;11.95;100.00;101886.34;6065611;23;20027;-75
2023/10/05 06:23:02;;;;;;;4.55;4.35;;;;;;;11.90;100.00;101859.34;6060338;23;20323;-74
2023/10/05 06:25:29;;;;;;;5.15;4.68;;;;;;;11.93;100.00;101875.00;6012921;23;20552;-73
2023/10/05 06:27:56;;;;;;;5.05;4.70;;;;;;;11.35;100.00;101768.50;6085611;23;20505;-75
2023/10/05 06:30:23;;;;;;;4.82;4.53;;;;;;;11.78;100.00;101835.19;6062611;23;20117;-75
2023/10/05 06:32:49;;;;;;;5.28;4.97;;;;;;;12.22;100.00;101887.00;6058089;23;20533;-75
2023/10/05 06:35:17;;;;;;;5.18;4.63;;;;;;;11.82;100.00;101814.88;6059129;23;20028;-73
2023/10/05 06:37:44;;;;;;;5.07;4.75;;;;;;;11.98;100.00;101812.53;6092147;23;20037;-75
2023/10/05 06:40:14;;;;;;;5.00;4.70;;;;;;;12.02;100.00;101821.16;6055064;23;20104;-73
2023/10/05 06:42:42;;;;;;;4.50;4.30;;;;;;;12.47;100.00;101880.72;6094569;23;20029;-74
2023/10/05 06:45:13;;;;;;;4.50;4.30;;;;;;;12.40;100.00;101848.53;6069196;23;20106;-75
2023/10/05 06:47:40;;;;;;;4.57;4.38;;;;;;;12.29;100.00;101819.19;6091102;23;20033;-73
2023/10/05 06:50:08;;;;;;;4.68;4.43;;;;;;;12.32;100.00;101800.63;6036603;23;20925;-74
2023/10/05 06:52:36;;;;;;;4.90;4.55;;;;;;;12.15;100.00;101767.13;6056549;23;20077;-73
2023/10/05 06:55:09;;;;;;;9.38;4.75;;;;;;;12.75;100.00;101852.34;6060863;23;20173;-74
2023/10/05 06:57:36;;;;;;;4.70;4.40;;;;;;;12.74;100.00;101836.59;6091837;23;20045;-73
2023/10/05 07:00:17;;;;;;;5.05;4.65;;;;;;;12.34;100.00;101764.56;6057577;23;20025;-73
2023/10/05 07:02:44;;;;;;;5.20;4.90;;;;;;;12.76;100.00;101824.22;6063009;23;20351;-73
2023/10/05 07:05:14;;;;;;;5.72;5.18;;;;;;;13.02;100.00;101859.13;6059031;23;20049;-75
2023/10/05 07:07:44;;;;;;;4.70;4.40;;;;;;;12.89;100.00;101835.06;6086637;23;20610;-73
2023/10/05 07:10:15;;;;;;;5.80;4.80;;;;;;;12.86;100.00;101832.56;6065918;23;20038;-72
2023/10/05 07:12:46;;;;;;;5.10;4.80;;;;;;;13.12;100.00;101860.41;6086325;23;20166;-75
2023/10/05 07:15:14;;;;;;;5.80;5.50;;;;;;;13.20;100.00;101860.06;6036010;23;20086;-75
2023/10/05 07:17:41;;;;;;;5.03;4.60;;;;;;;13.05;100.00;101841.41;6081422;23;20026;-74
2023/10/05 07:20:16;;;;;;;5.03;4.72;;;;;;;13.09;100.00;101834.19;6044226;23;20085;-75
2023/10/05 07:22:44;;;;;;;5.20;4.90;;;;;;;13.29;100.00;101857.91;6082061;23;20549;-74
2023/10/05 07:25:21;;;;;;;6.90;4.70;;;;;;;13.29;100.00;101857.00;6057006;23;20525;-75
2023/10/05 07:27:47;;;;;;;5.10;4.70;;;;;;;13.38;100.00;101858.44;6006500;23;20024;-74
2023/10/05 07:30:15;;;;;;;5.38;4.88;;;;;;;12.86;100.00;101759.66;6060821;23;20050;-74
2023/10/05 07:32:42;;;;;;;5.60;5.20;;;;;;;13.35;100.00;101831.28;6084877;23;20022;-73
2023/10/05 07:35:12;;;;;;;5.57;5.18;;;;;;;13.43;100.00;101851.16;6041994;23;20537;-75
2023/10/05 07:37:41;;;;;;;4.90;4.60;;;;;;;13.52;100.00;101859.50;6070432;23;20029;-75
2023/10/05 07:40:07;;;;;;;5.90;5.40;;;;;;;13.43;100.00;101857.31;6056814;23;20055;-73
2023/10/05 07:42:34;;;;;;;5.57;5.13;;;;;;;13.56;100.00;101871.63;6079968;23;20044;-75
2023/10/05 07:45:01;;;;;;;4.80;4.60;;;;;;;13.51;100.00;101849.00;6055545;23;20026;-73
2023/10/05 07:47:28;;;;;;;5.40;5.00;;;;;;;13.77;100.00;101868.91;6013545;23;20093;-76
2023/10/05 07:49:57;;;;;;;5.05;4.75;;;;;;;13.37;100.00;101794.31;6081572;23;20040;-75
2023/10/05 07:52:23;;;;;;;5.45;5.05;;;;;;;13.82;100.00;101861.63;6060139;23;20045;-73
2023/10/05 07:54:51;;;;;;;5.40;5.00;;;;;;;13.75;100.00;101831.19;6063787;23;20461;-74
2023/10/05 07:57:18;;;;;;;5.50;4.90;;;;;;;14.12;100.00;101864.59;6059393;23;20026;-74
2023/10/05 07:59:44;;;;;;;5.47;5.07;;;;;;;14.09;100.00;101855.97;6088626;23;20440;-75
2023/10/05 08:02:11;;;;;;;5.25;4.95;;;;;;;14.29;100.00;101876.13;6061234;23;20030;-73
2023/10/05 08:04:38;;;;;;;5.18;4.65;;;;;;;14.42;100.00;101873.75;6088589;23;20032;-74
2023/10/05 08:07:05;;;;;;;5.75;5.25;;;;;;;13.98;100.00;101789.66;6055676;23;20021;-73
2023/10/05 08:09:32;;;;;;;5.20;4.90;;;;;;;14.21;100.00;101799.06;6086553;23;20034;-75
2023/10/05 08:11:59;;;;;;;6.65;6.13;;;;;;;14.34;100.00;101819.50;6064370;23;20452;-74
2023/10/05 08:14:26;;;;;;;4.90;4.70;;;;;;;14.63;100.00;101854.19;6088223;23;20208;-74
2023/10/05 08:16:55;;;;;;;8.25;5.00;;;;;;;14.73;100.00;101841.38;6058431;23;20253;-73
2023/10/05 08:19:25;;;;;;;4.72;4.53;;;;;;;14.78;100.00;101820.00;6082886;23;20595;-74
2023/10/05 08:21:53;;;;;;;4.90;4.60;;;;;;;14.69;100.00;101766.72;6062969;23;20124;-74
2023/10/05 08:24:25;;;;;;;5.65;4.82;;;;;;;15.07;100.00;101823.75;6029067;23;20434;-74
2023/10/05 08:26:52;;;;;;;;;;;;;;;15.14;100.00;101804.84;6069020;23;20603;-75
2023/10/05 08:29:22;;;;;;;5.90;5.20;;;;;;;14.91;100.00;101717.97;6032188;23;20771;-73
2023/10/05 08:31:49;;;;;;;5.03;4.82;;;;;;;15.28;100.00;101766.22;6083431;23;20018;-73
2023/10/05 08:34:22;;;;;;;5.15;4.95;;;;;;;15.42;100.00;101761.03;6057033;23;20030;-76
2023/10/05 08:36:55;;;;;;;5.35;4.95;;;;;;;15.29;100.00;101734.38;6027507;23;20077;-76
2023/10/05 08:39:25;;;;;;;10.25;5.20;;;;;;;15.26;100.00;101680.81;6075145;23;20041;-75
2023/10/05 08:41:57;;;;;;;5.80;4.80;;;;;;;15.73;100.00;101716.97;6066846;23;20253;-75
2023/10/05 08:44:27;;;;;;;5.35;4.95;;;;;;;15.87;98.59;101687.91;6083699;23;20050;-73
2023/10/05 08:46:58;;;;;;;5.20;4.82;;;;;;;15.91;97.69;101673.53;6063191;23;20358;-74
2023/10/05 08:49:27;;;;;;;5.20;4.90;;;;;;;15.54;97.14;101603.38;6060979;23;20040;-76
2023/10/05 08:51:53;;;;;;;7.70;5.60;;;;;;;15.97;94.88;101626.47;6062949;23;20026;-74
2023/10/05 08:54:33;;;;;;;5.43;5.00;;;;;;;15.98;95.33;101622.91;6082901;23;20084;-75
2023/10/05 08:57:08;;;;;;;5.70;5.30;;;;;;;16.06;92.55;101587.06;6061112;23;20081;-75
2023/10/05 08:59:45;;;;;;;13.23;5.25;;;;;;;15.91;93.55;101580.88;6080885;23;20100;-75
2023/10/05 09:02:18;;;;;;;4.93;4.72;;;;;;;15.63;90.20;101474.97;6060549;23;20029;-74
2023/10/05 09:04:57;;;;;;;5.82;5.43;;;;;;;16.19;89.50;101565.97;6090470;23;20022;-73
2023/10/05 09:07:34;;;;;;;5.18;4.88;;;;;;;16.31;92.04;101638.50;6055284;23;20359;-73
2023/10/05 09:10:05;;;;;;;5.60;5.20;;;;;;;16.24;91.49;101618.66;6081990;23;20095;-73
2023/10/05 09:12:46;;;;;;;6.05;5.53;;;;;;;16.27;89.80;101576.09;6057567;23;20030;-75
2023/10/05 09:20:36;;;;;;;5.70;5.20;;;;;;;16.31;91.33;101633.22;6083774;23;20054;-75
2023/10/05 09:23:05;;;;;;;5.97;5.38;;;;;;;16.40;88.37;101579.69;6052992;23;20038;-74
2023/10/05 09:25:34;;;;;;;5.60;5.22;;;;;;;16.21;87.49;101540.22;6085330;23;20536;-75
2023/10/05 09:28:16;;;;;;;5.65;5.15;;;;;;;16.38;87.64;101564.81;6055236;23;20024;-74
2023/10/05 09:30:59;;;;;;;5.30;5.00;;;;;;;16.52;88.72;101617.81;6027179;23;20119;-73
2023/10/05 09:33:33;;;;;;;8.20;5.25;;;;;;;16.50;88.14;101606.44;6067986;23;20026;-73
2023/10/05 09:36:22;;;;;;;5.75;5.25;;;;;;;16.47;86.78;101580.13;6091292;23;20030;-74
2023/10/05 09:38:51;;;;;;;6.03;5.60;;;;;;;15.56;87.94;101483.28;6036291;23;20090;-73
2023/10/05 09:41:19;;;;;;;6.10;5.70;;;;;;;16.42;87.35;101590.19;6087884;23;20038;-74
2023/10/05 09:43:58;;;;;;;5.18;4.88;;;;;;;16.29;88.04;101606.81;6044250;23;20027;-73
2023/10/05 09:46:29;;;;;;;5.25;4.93;;;;;;;16.69;89.77;101691.78;6087797;23;20149;-74
2023/10/05 09:49:01;;;;;;;5.85;5.22;;;;;;;16.80;92.33;101759.19;6065586;23;20402;-73
2023/10/05 09:51:28;;;;;;;5.72;5.25;;;;;;;16.74;90.12;101696.81;6091039;23;20037;-75
2023/10/05 09:53:56;;;;;;;5.20;4.90;;;;;;;16.82;86.89;101623.00;6037506;23;20039;-76
2023/10/05 09:56:25;;;;;;;5.68;5.18;;;;;;;16.66;86.22;101587.78;6091557;23;20484;-72
2023/10/05 09:59:15;;;;;;;5.43;5.13;;;;;;;16.62;85.45;101578.31;6059272;23;20047;-75
2023/10/05 10:01:45;;;;;;;5.40;5.05;;;;;;;16.53;85.45;101600.94;6080241;23;20493;-74
2023/10/05 10:04:24;;;;;;;5.63;5.32;;;;;;;16.47;86.47;101611.94;6032819;23;20079;-73
2023/10/05 10:06:53;;;;;;;5.30;5.00;;;;;;;16.62;86.27;101633.94;6086954;23;20091;-74
2023/10/05 10:09:26;;;;;;;5.85;5.50;;;;;;;16.68;87.86;101673.34;6058903;23;20304;-74
2023/10/05 10:11:58;;;;;;;5.63;5.22;;;;;;;16.61;86.38;101625.16;6065858;23;20059;-73
2023/10/05 10:14:26;;;;;;;5.20;5.00;;;;;;;16.66;86.97;101664.66;6068487;23;20058;-73
2023/10/05 10:17:00;;;;;;;5.70;5.28;;;;;;;16.95;87.18;101707.91;6044664;23;20029;-73
2023/10/05 10:19:26;;;;;;;8.43;5.13;;;;;;;16.93;84.53;101624.94;6059033;23;20519;-73
2023/10/05 10:22:07;;;;;;;5.88;5.47;;;;;;;16.38;82.70;101525.94;6061881;23;20069;-73
2023/10/05 10:24:34;;;;;;;6.35;5.45;;;;;;;16.42;83.20;101518.66;6035063;23;20038;-74
2023/10/05 10:27:08;;;;;;;8.20;5.45;;;;;;;16.95;84.15;101617.75;6081893;23;20081;-76
2023/10/05 10:29:51;;;;;;;6.70;5.72;;;;;;;16.72;82.50;101577.63;6033616;23;20046;-73
2023/10/05 10:32:20;;;;;;;5.70;5.40;;;;;;;16.79;83.46;101607.25;6078268;23;20033;-74
2023/10/05 10:34:57;;;;;;;5.28;4.97;;;;;;;16.68;81.91;101532.88;6057222;23;20057;-74
2023/10/05 10:37:34;;;;;;;5.20;4.90;;;;;;;16.29;81.97;101477.03;6026251;23;20034;-74
2023/10/05 10:40:01;;;;;;;6.85;5.75;;;;;;;16.71;81.24;101544.09;6073766;23;20038;-74
2023/10/05 10:42:49;;;;;;;5.30;5.00;;;;;;;16.67;83.46;101603.56;6051840;23;20036;-75
2023/10/05 10:45:23;;;;;;;5.75;5.45;;;;;;;16.78;85.42;101666.53;6084874;23;20041;-74
2023/10/05 10:47:54;;;;;;;5.40;5.10;;;;;;;16.33;83.24;101531.50;6033642;23;20022;-72
2023/10/05 10:50:24;;;;;;;5.70;5.40;;;;;;;16.94;84.26;101666.44;6010206;23;20019;-74
2023/10/05 10:52:51;;;;;;;5.80;5.30;;;;;;;16.82;84.68;101645.97;6040269;23;20031;-72
2023/10/05 10:55:20;;;;;;;6.00;5.60;;;;;;;16.25;85.90;101578.81;6080335;23;20037;-73
2023/10/05 10:57:48;;;;;;;5.45;5.05;;;;;;;16.97;85.06;101670.69;6053017;23;20030;-72
2023/10/05 11:01:02;;;;;;;5.93;5.30;;;;;;;17.03;82.51;101596.88;6026087;23;20030;-73
2023/10/05 11:03:12;;;;;;;5.80;5.30;;;;;;;17.12;81.46;101580.38;6064968;23;20054;-74
2023/10/05 11:05:54;;;;;;;5.55;5.25;;;;;;;17.35;83.77;101684.97;6057774;23;20401;-73
2023/10/05 11:08:21;;;;;;;6.15;5.55;;;;;;;17.12;81.99;101603.41;6023305;23;20051;-72
2023/10/05 11:11:09;;;;;;;5.97;5.47;;;;;;;17.05;81.36;101567.63;6060834;23;20037;-73
2023/10/05 11:13:49;;;;;;;5.60;5.25;;;;;;;17.48;78.77;101546.16;6082923;23;20030;-73
2023/10/05 11:16:15;;;;;;;5.90;5.47;;;;;;;17.52;79.26;101583.03;6033285;23;20058;-74
2023/10/05 11:18:50;;;;;;;5.55;5.25;;;;;;;17.23;78.62;101513.34;6003412;23;20038;-73
2023/10/05 11:21:19;;;;;;;6.18;5.38;;;;;;;17.23;78.39;101499.25;6059080;23;20129;-74
2023/10/05 11:23:48;;;;;;;5.60;5.18;;;;;;;17.29;78.74;101542.13;6005733;23;20467;-74
2023/10/05 11:26:17;;;;;;;6.05;5.57;;;;;;;17.37;77.54;101512.41;6083606;23;20159;-74
2023/10/05 11:28:51;;;;;;;6.32;5.97;;;;;;;17.27;78.28;101532.56;6047998;23;20386;-74
2023/10/05 11:31:33;;;;;;;5.85;5.45;;;;;;;17.63;79.60;101626.59;6034314;23;20038;-73
2023/10/05 11:34:22;;;;;;;11.80;5.78;;;;;;;17.51;78.23;101530.91;6080369;23;20160;-73
2023/10/05 11:37:16;;;;;;;5.55;5.22;;;;;;;17.63;78.50;101584.94;6055730;23;20034;-75
2023/10/05 11:39:49;;;;;;;5.30;5.00;;;;;;;17.66;77.10;101528.13;6059964;23;20037;-72
2023/10/05 11:42:25;;;;;;;6.43;5.70;;;;;;;17.62;76.12;101492.16;6053796;23;20600;-74
2023/10/05 11:44:59;;;;;;;5.85;5.50;;;;;;;17.67;75.73;101461.69;6066697;23;20054;-75
2023/10/05 11:47:35;;;;;;;5.85;5.45;;;;;;;17.79;76.63;101520.19;6097924;23;20124;-73
2023/10/05 11:50:07;;;;;;;6.00;5.43;;;;;;;17.97;76.97;101563.25;6057435;23;20472;-73
2023/10/05 11:52:38;;;;;;;5.78;5.28;;;;;;;18.02;73.87;101466.34;6106736;23;20326;-76
2023/10/05 11:55:14;;;;;;;5.53;5.13;;;;;;;18.11;75.14;101528.59;6030039;23;20627;-73
2023/10/05 11:57:41;;;;;;;5.47;5.10;;;;;;;18.23;73.51;101490.50;6110791;23;20046;-73